Time;durP1;ratioP1;P1;durP2;ratioP2;P2;SDS_P1;SDS_P2;PMS_P1;PMS_P2;Temp;Humidity;BMP_temperature;BMP_pressure;BME280_temperature;BME280_humidity;BME280_pressure;Samples;Min_cycle;Max_cycle;Signal;HPM_P1;HPM_P2
2021/12/30 00:00:13;;;;;;;82.57;36.17;;;;;;;;;;5066100;28;20032;-44
2021/12/30 00:02:39;;;;;;;124.18;60.92;;;;;;;;;;5065178;28;20214;-44
2021/12/30 00:05:05;;;;;;;131.80;64.68;;;;;;;;;;5065130;28;20025;-44
2021/12/30 00:07:32;;;;;;;120.60;53.90;;;;;;;;;;5065177;28;20032;-40
2021/12/30 00:09:58;;;;;;;112.82;56.53;;;;;;;;;;5065060;28;20033;-43
2021/12/30 00:12:24;;;;;;;103.18;49.05;;;;;;;;;;5066608;28;20028;-42
2021/12/30 00:14:50;;;;;;;250.63;128.40;;;;;;;;;;5065134;28;20528;-41
2021/12/30 00:17:16;;;;;;;109.28;52.22;;;;;;;;;;5065998;28;20024;-44
2021/12/30 00:19:42;;;;;;;83.57;41.17;;;;;;;;;;5065061;28;20024;-44
2021/12/30 00:22:09;;;;;;;82.70;45.15;;;;;;;;;;5064832;28;20060;-45
2021/12/30 00:24:35;;;;;;;104.13;47.55;;;;;;;;;;5064383;28;20143;-39
2021/12/30 00:27:03;;;;;;;140.27;76.63;;;;;;;;;;5064373;28;20122;-45
2021/12/30 00:29:30;;;;;;;102.78;55.45;;;;;;;;;;5064670;28;20791;-45
2021/12/30 00:31:56;;;;;;;109.00;58.42;;;;;;;;;;5064627;28;20025;-43
2021/12/30 00:34:22;;;;;;;85.20;41.42;;;;;;;;;;5065667;28;20021;-45
2021/12/30 00:36:48;;;;;;;106.15;49.80;;;;;;;;;;5064616;28;20029;-46
2021/12/30 00:39:14;;;;;;;148.27;77.75;;;;;;;;;;5065656;28;20025;-46
2021/12/30 00:41:40;;;;;;;161.23;85.75;;;;;;;;;;5064548;28;20035;-43
2021/12/30 00:44:06;;;;;;;137.60;68.85;;;;;;;;;;5064480;28;20027;-45
2021/12/30 00:46:35;;;;;;;99.38;50.75;;;;;;;;;;5064203;28;20436;-44
2021/12/30 00:49:03;;;;;;;95.88;49.05;;;;;;;;;;5064498;28;20035;-45
2021/12/30 00:51:29;;;;;;;115.85;59.35;;;;;;;;;;5065078;28;20152;-45
2021/12/30 00:53:56;;;;;;;111.53;57.25;;;;;;;;;;5066758;28;20016;-45
2021/12/30 00:56:22;;;;;;;72.80;37.75;;;;;;;;;;5064294;28;20024;-42
2021/12/30 00:58:48;;;;;;;60.20;30.88;;;;;;;;;;5068841;28;20017;-46
2021/12/30 01:01:14;;;;;;;57.65;31.60;;;;;;;;;;5095073;28;20027;-42
2021/12/30 01:03:40;;;;;;;64.88;31.50;;;;;;;;;;5095046;28;20024;-47
2021/12/30 01:06:07;;;;;;;54.83;27.80;;;;;;;;;;5094391;28;20028;-44
2021/12/30 01:08:33;;;;;;;83.10;40.53;;;;;;;;;;5094866;28;20496;-41
2021/12/30 01:11:06;;;;;;;75.07;35.28;;;;;;;;;;5094758;28;20039;-41
2021/12/30 01:13:32;;;;;;;56.88;28.25;;;;;;;;;;5094922;28;20016;-46
2021/12/30 01:16:05;;;;;;;53.85;25.20;;;;;;;;;;5094851;28;20024;-47
2021/12/30 01:18:42;;;;;;;48.35;24.20;;;;;;;;;;5094950;28;20020;-46
2021/12/30 01:21:09;;;;;;;46.35;23.85;;;;;;;;;;5094648;28;20024;-46
2021/12/30 01:23:36;;;;;;;48.28;24.58;;;;;;;;;;5094601;28;20436;-46
2021/12/30 01:26:03;;;;;;;38.97;20.13;;;;;;;;;;5094773;28;20519;-46
2021/12/30 01:28:29;;;;;;;45.35;21.42;;;;;;;;;;5094622;28;20128;-46
2021/12/30 01:31:00;;;;;;;46.63;25.33;;;;;;;;;;5094539;28;20027;-47
2021/12/30 01:33:26;;;;;;;41.78;22.95;;;;;;;;;;5094586;28;20045;-45
2021/12/30 01:35:54;;;;;;;49.40;23.35;;;;;;;;;;5094600;28;20016;-46
2021/12/30 01:38:20;;;;;;;46.47;22.48;;;;;;;;;;5094245;28;20406;-46
2021/12/30 01:40:48;;;;;;;47.60;24.02;;;;;;;;;;5094351;28;20073;-48
2021/12/30 01:43:14;;;;;;;42.28;21.67;;;;;;;;;;5094293;28;20099;-47
2021/12/30 01:45:42;;;;;;;46.80;24.48;;;;;;;;;;5094206;28;20151;-42
2021/12/30 01:48:08;;;;;;;38.55;20.38;;;;;;;;;;5094415;28;20028;-41
2021/12/30 01:50:34;;;;;;;39.08;20.10;;;;;;;;;;5094164;28;20020;-42
2021/12/30 01:53:01;;;;;;;44.17;21.42;;;;;;;;;;5094202;28;20147;-43
2021/12/30 01:55:30;;;;;;;52.97;27.83;;;;;;;;;;5094457;28;20382;-42
2021/12/30 01:57:56;;;;;;;62.72;30.02;;;;;;;;;;5093908;28;20039;-41
2021/12/30 02:00:23;;;;;;;53.50;27.30;;;;;;;;;;5094161;28;20017;-41
2021/12/30 02:02:50;;;;;;;64.03;33.88;;;;;;;;;;5094077;28;20032;-41
2021/12/30 02:05:16;;;;;;;55.65;27.65;;;;;;;;;;5094097;28;20020;-42
2021/12/30 02:07:45;;;;;;;51.35;25.23;;;;;;;;;;5093678;28;20434;-41
2021/12/30 02:10:12;;;;;;;46.95;23.77;;;;;;;;;;5093721;28;20525;-41
2021/12/30 02:12:46;;;;;;;47.05;22.40;;;;;;;;;;5093797;28;20085;-40
2021/12/30 02:15:13;;;;;;;50.75;24.35;;;;;;;;;;5093805;28;20099;-41
2021/12/30 02:17:39;;;;;;;53.40;27.17;;;;;;;;;;5093485;28;20066;-41
2021/12/30 02:20:07;;;;;;;45.65;22.67;;;;;;;;;;5093682;28;20063;-41
2021/12/30 02:22:34;;;;;;;49.53;23.98;;;;;;;;;;5093658;28;20028;-41
2021/12/30 02:25:00;;;;;;;49.25;23.30;;;;;;;;;;5093702;28;20049;-41
2021/12/30 02:27:27;;;;;;;47.33;23.38;;;;;;;;;;5093466;28;20044;-41
2021/12/30 02:29:53;;;;;;;51.75;22.77;;;;;;;;;;5093796;28;20049;-41
2021/12/30 02:32:22;;;;;;;48.50;24.27;;;;;;;;;;5093870;28;20111;-41
2021/12/30 02:34:51;;;;;;;56.22;24.33;;;;;;;;;;5092305;28;20032;-41
2021/12/30 02:37:20;;;;;;;44.33;22.27;;;;;;;;;;5092040;28;20172;-41
2021/12/30 02:39:52;;;;;;;40.15;19.38;;;;;;;;;;5093576;28;20023;-40
2021/12/30 02:42:18;;;;;;;;;;;;;;;;;;5094171;28;20032;-44
2021/12/30 02:44:44;;;;;;;39.67;17.70;;;;;;;;;;5093449;28;20280;-42
2021/12/30 02:47:14;;;;;;;37.97;16.77;;;;;;;;;;5093335;28;20028;-46
2021/12/30 02:49:40;;;;;;;29.05;15.55;;;;;;;;;;5093252;28;20449;-45
2021/12/30 02:52:06;;;;;;;35.83;16.55;;;;;;;;;;5093514;28;20024;-46
2021/12/30 02:54:33;;;;;;;36.97;17.55;;;;;;;;;;5093448;28;20024;-46
2021/12/30 02:56:59;;;;;;;37.78;17.60;;;;;;;;;;5093199;28;20124;-47
2021/12/30 02:59:25;;;;;;;41.72;16.45;;;;;;;;;;5093380;28;20105;-45
2021/12/30 03:01:51;;;;;;;50.92;19.30;;;;;;;;;;5093435;28;20024;-46
2021/12/30 03:04:18;;;;;;;49.17;18.90;;;;;;;;;;5093193;28;20020;-45
2021/12/30 03:06:44;;;;;;;45.20;17.48;;;;;;;;;;5093073;28;20111;-45
2021/12/30 03:09:10;;;;;;;40.22;17.67;;;;;;;;;;5093451;28;20051;-47
2021/12/30 03:11:36;;;;;;;47.35;17.67;;;;;;;;;;5093210;28;20025;-53
2021/12/30 03:14:02;;;;;;;47.65;19.08;;;;;;;;;;5093194;28;20020;-48
2021/12/30 03:16:32;;;;;;;50.70;21.95;;;;;;;;;;5093183;28;20024;-47
2021/12/30 03:18:58;;;;;;;36.80;17.55;;;;;;;;;;5093106;28;20119;-46
2021/12/30 03:21:25;;;;;;;44.28;21.00;;;;;;;;;;5093081;28;20024;-47
2021/12/30 03:23:52;;;;;;;42.00;17.92;;;;;;;;;;5092999;28;20081;-47
2021/12/30 03:26:18;;;;;;;45.30;16.38;;;;;;;;;;5092719;28;20036;-47
2021/12/30 03:28:44;;;;;;;36.92;16.48;;;;;;;;;;5094495;28;20414;-41
2021/12/30 03:31:12;;;;;;;42.80;18.20;;;;;;;;;;5097020;28;20017;-46
2021/12/30 03:33:38;;;;;;;47.35;18.30;;;;;;;;;;5096803;28;20077;-46
2021/12/30 03:36:05;;;;;;;46.20;18.17;;;;;;;;;;5096755;28;20074;-47
2021/12/30 03:38:33;;;;;;;39.58;17.02;;;;;;;;;;5096615;28;20027;-46
2021/12/30 03:40:59;;;;;;;41.15;16.13;;;;;;;;;;5095516;28;20517;-45
2021/12/30 03:43:28;;;;;;;39.90;19.02;;;;;;;;;;5096798;28;20032;-46
2021/12/30 03:45:55;;;;;;;36.80;16.80;;;;;;;;;;5096740;28;20398;-47
2021/12/30 03:48:31;;;;;;;45.75;18.80;;;;;;;;;;5096569;28;20069;-48
2021/12/30 03:51:05;;;;;;;51.70;17.30;;;;;;;;;;5096702;28;20035;-41
2021/12/30 03:53:31;;;;;;;43.80;17.38;;;;;;;;;;5096430;28;20103;-46
2021/12/30 03:55:58;;;;;;;41.78;16.80;;;;;;;;;;5096275;28;20050;-48
2021/12/30 03:58:24;;;;;;;40.38;19.15;;;;;;;;;;5096376;28;20573;-48
2021/12/30 04:00:50;;;;;;;44.22;19.23;;;;;;;;;;5096189;28;20028;-48
2021/12/30 04:03:16;;;;;;;34.97;16.20;;;;;;;;;;5096221;28;20024;-48
2021/12/30 04:05:44;;;;;;;40.65;16.77;;;;;;;;;;5096450;28;20024;-48
2021/12/30 04:08:11;;;;;;;42.53;18.00;;;;;;;;;;5096081;28;20039;-48
2021/12/30 04:10:40;;;;;;;37.80;15.55;;;;;;;;;;5096267;28;20016;-48
2021/12/30 04:13:06;;;;;;;48.67;16.25;;;;;;;;;;5096048;28;20024;-43
2021/12/30 04:15:32;;;;;;;32.60;15.57;;;;;;;;;;5096136;28;20016;-48
2021/12/30 04:17:58;;;;;;;38.55;16.02;;;;;;;;;;5095986;28;20536;-46
2021/12/30 04:20:24;;;;;;;51.38;19.30;;;;;;;;;;5095960;28;20032;-46
2021/12/30 04:22:50;;;;;;;39.47;15.73;;;;;;;;;;5095924;28;20020;-46
2021/12/30 04:25:17;;;;;;;44.50;14.82;;;;;;;;;;5095975;28;20031;-46
2021/12/30 04:27:43;;;;;;;39.15;16.27;;;;;;;;;;5095383;28;20080;-48
2021/12/30 04:30:10;;;;;;;57.08;15.63;;;;;;;;;;5095800;28;20439;-47
2021/12/30 04:32:37;;;;;;;42.70;17.30;;;;;;;;;;5094400;28;20119;-54
2021/12/30 04:35:03;;;;;;;35.45;15.35;;;;;;;;;;5095691;28;20024;-52
2021/12/30 04:37:29;;;;;;;47.47;17.05;;;;;;;;;;5095451;28;20027;-55
2021/12/30 04:39:55;;;;;;;43.10;15.63;;;;;;;;;;5094963;28;20482;-54
2021/12/30 04:42:21;;;;;;;42.58;18.15;;;;;;;;;;5095448;28;20020;-54
2021/12/30 04:44:48;;;;;;;48.35;19.58;;;;;;;;;;5095578;28;20121;-53
2021/12/30 04:47:15;;;;;;;62.40;21.02;;;;;;;;;;5095435;28;20071;-47
2021/12/30 04:49:41;;;;;;;56.03;19.25;;;;;;;;;;5095212;28;20037;-54
2021/12/30 04:52:09;;;;;;;41.05;16.15;;;;;;;;;;5095150;28;20024;-41
2021/12/30 04:54:35;;;;;;;35.15;12.95;;;;;;;;;;5095240;28;20020;-53
2021/12/30 04:57:01;;;;;;;52.33;19.15;;;;;;;;;;5095445;28;20028;-46
2021/12/30 04:59:27;;;;;;;37.30;14.75;;;;;;;;;;5095157;28;20025;-55
2021/12/30 05:01:58;;;;;;;83.05;18.33;;;;;;;;;;5095025;28;20043;-56
2021/12/30 05:04:24;;;;;;;83.38;15.30;;;;;;;;;;5094026;28;20089;-46
2021/12/30 05:06:50;;;;;;;41.25;19.58;;;;;;;;;;5094743;28;20036;-44
2021/12/30 05:09:16;;;;;;;34.85;13.45;;;;;;;;;;5094984;28;20027;-42
2021/12/30 05:11:43;;;;;;;51.60;17.50;;;;;;;;;;5094896;28;20466;-41
2021/12/30 05:14:09;;;;;;;52.60;16.52;;;;;;;;;;5094847;28;20028;-54
2021/12/30 05:16:36;;;;;;;34.55;16.65;;;;;;;;;;5094849;28;20091;-55
2021/12/30 05:19:05;;;;;;;48.45;22.33;;;;;;;;;;5094784;28;20625;-55
2021/12/30 05:21:33;;;;;;;53.60;25.48;;;;;;;;;;5094734;28;20028;-56
2021/12/30 05:24:00;;;;;;;51.45;25.08;;;;;;;;;;5094528;28;20027;-55
2021/12/30 05:26:28;;;;;;;43.50;21.42;;;;;;;;;;5094601;28;20112;-47
2021/12/30 05:28:58;;;;;;;46.80;21.30;;;;;;;;;;5094456;28;20059;-55
2021/12/30 05:31:27;;;;;;;39.15;18.48;;;;;;;;;;5094423;28;20095;-53
2021/12/30 05:33:53;;;;;;;43.72;20.75;;;;;;;;;;5094581;28;20489;-41
2021/12/30 05:36:19;;;;;;;38.08;14.90;;;;;;;;;;5094631;28;20093;-54
2021/12/30 05:38:46;;;;;;;27.92;14.43;;;;;;;;;;5093015;28;20077;-44
2021/12/30 05:41:12;;;;;;;40.45;18.27;;;;;;;;;;5094373;28;20024;-55
2021/12/30 05:43:38;;;;;;;29.27;13.88;;;;;;;;;;5094355;28;20378;-53
2021/12/30 05:46:04;;;;;;;31.45;15.93;;;;;;;;;;5094161;28;20024;-55
2021/12/30 05:48:30;;;;;;;35.88;17.30;;;;;;;;;;5094525;28;20032;-54
2021/12/30 05:50:59;;;;;;;32.33;16.40;;;;;;;;;;5094151;28;20466;-41
2021/12/30 05:53:26;;;;;;;35.60;16.48;;;;;;;;;;5094315;28;20051;-55
2021/12/30 05:55:53;;;;;;;50.53;22.65;;;;;;;;;;5094042;28;20020;-54
2021/12/30 05:58:21;;;;;;;41.75;18.40;;;;;;;;;;5094168;28;20577;-44
2021/12/30 06:00:49;;;;;;;42.00;19.77;;;;;;;;;;5093944;28;20031;-41
2021/12/30 06:03:18;;;;;;;49.63;23.92;;;;;;;;;;5094307;28;20473;-41
2021/12/30 06:05:44;;;;;;;35.45;18.35;;;;;;;;;;5094132;28;20028;-43
2021/12/30 06:08:11;;;;;;;38.78;19.98;;;;;;;;;;5094064;28;20028;-55
2021/12/30 06:10:37;;;;;;;36.50;19.25;;;;;;;;;;5094209;28;20359;-51
2021/12/30 06:13:03;;;;;;;34.63;19.02;;;;;;;;;;5093710;28;20558;-51
2021/12/30 06:15:30;;;;;;;29.88;16.70;;;;;;;;;;5094380;28;20039;-55
2021/12/30 06:17:56;;;;;;;37.60;20.23;;;;;;;;;;5093897;28;20036;-56
2021/12/30 06:20:24;;;;;;;49.53;14.80;;;;;;;;;;5093708;28;20432;-55
2021/12/30 06:22:51;;;;;;;32.47;17.08;;;;;;;;;;5094073;28;20032;-56
2021/12/30 06:25:17;;;;;;;34.67;18.17;;;;;;;;;;5093573;28;20024;-55
2021/12/30 06:27:47;;;;;;;33.15;17.48;;;;;;;;;;5093453;28;20044;-45
2021/12/30 06:30:15;;;;;;;;;;;;;;;;;;5093874;28;20490;-52
2021/12/30 06:32:41;;;;;;;41.08;17.13;;;;;;;;;;5093603;28;19991;-41
2021/12/30 06:35:08;;;;;;;38.22;19.67;;;;;;;;;;5093618;28;20081;-44
2021/12/30 06:37:35;;;;;;;45.90;20.65;;;;;;;;;;5093521;28;20024;-55
2021/12/30 06:40:01;;;;;;;58.33;24.25;;;;;;;;;;5093604;28;20016;-47
2021/12/30 06:42:30;;;;;;;70.97;29.17;;;;;;;;;;5093510;28;20021;-56
2021/12/30 06:44:56;;;;;;;78.82;30.13;;;;;;;;;;5093381;28;20473;-53
2021/12/30 06:47:24;;;;;;;94.15;36.05;;;;;;;;;;5093391;28;20114;-48
2021/12/30 06:49:50;;;;;;;96.15;34.55;;;;;;;;;;5093870;28;20028;-45
2021/12/30 06:52:16;;;;;;;93.47;32.72;;;;;;;;;;5093402;28;20477;-44
2021/12/30 06:54:42;;;;;;;91.72;31.85;;;;;;;;;;5093485;28;20111;-43
2021/12/30 06:57:11;;;;;;;96.45;34.83;;;;;;;;;;5093775;28;20042;-42
2021/12/30 06:59:37;;;;;;;102.80;36.10;;;;;;;;;;5093394;28;20144;-49
2021/12/30 07:02:06;;;;;;;108.05;37.20;;;;;;;;;;5093586;28;20028;-51
2021/12/30 07:04:32;;;;;;;89.38;33.25;;;;;;;;;;5095899;28;20020;-55
2021/12/30 07:06:59;;;;;;;66.25;28.95;;;;;;;;;;5095605;28;20401;-53
2021/12/30 07:09:25;;;;;;;67.85;28.88;;;;;;;;;;5096629;28;20401;-41
2021/12/30 07:11:51;;;;;;;68.13;29.15;;;;;;;;;;5095480;28;20431;-39
2021/12/30 07:14:22;;;;;;;59.17;25.33;;;;;;;;;;5096595;28;20469;-41
2021/12/30 07:16:49;;;;;;;88.65;36.63;;;;;;;;;;5096711;28;20019;-40
2021/12/30 07:19:17;;;;;;;77.65;28.85;;;;;;;;;;5096754;28;20028;-42
2021/12/30 07:21:44;;;;;;;70.78;29.92;;;;;;;;;;5096500;28;20027;-43
2021/12/30 07:24:10;;;;;;;71.30;29.88;;;;;;;;;;5096616;28;20020;-43
2021/12/30 07:26:37;;;;;;;53.33;25.25;;;;;;;;;;5096610;28;20068;-44
2021/12/30 07:29:03;;;;;;;49.53;24.02;;;;;;;;;;5096782;28;20123;-48
2021/12/30 07:31:30;;;;;;;51.95;25.63;;;;;;;;;;5096881;28;20026;-49
2021/12/30 07:33:56;;;;;;;78.43;35.83;;;;;;;;;;5096889;28;20344;-50
2021/12/30 07:36:22;;;;;;;57.92;30.27;;;;;;;;;;5097189;28;20453;-49
2021/12/30 07:38:49;;;;;;;55.72;26.33;;;;;;;;;;5096629;28;20040;-48
2021/12/30 07:41:15;;;;;;;55.72;28.63;;;;;;;;;;5096806;28;20052;-49
2021/12/30 07:43:41;;;;;;;67.85;31.25;;;;;;;;;;5096751;28;20043;-49
2021/12/30 07:46:09;;;;;;;94.40;46.80;;;;;;;;;;5096622;28;20500;-45
2021/12/30 07:48:36;;;;;;;75.82;37.38;;;;;;;;;;5096571;28;20044;-50
2021/12/30 07:51:02;;;;;;;80.65;43.42;;;;;;;;;;5096608;28;20024;-46
2021/12/30 07:53:28;;;;;;;88.18;45.47;;;;;;;;;;5096385;28;20039;-47
2021/12/30 07:55:54;;;;;;;81.32;44.30;;;;;;;;;;5096378;28;20031;-49
2021/12/30 07:58:20;;;;;;;70.00;34.95;;;;;;;;;;5096480;28;20099;-43
2021/12/30 08:00:46;;;;;;;56.30;29.85;;;;;;;;;;5096416;28;20432;-49
2021/12/30 08:03:15;;;;;;;47.13;23.17;;;;;;;;;;5096499;28;20022;-49
2021/12/30 08:05:41;;;;;;;47.20;21.58;;;;;;;;;;5096284;28;20020;-48
2021/12/30 08:08:07;;;;;;;39.45;20.25;;;;;;;;;;5096115;28;20503;-47
2021/12/30 08:10:34;;;;;;;63.72;31.27;;;;;;;;;;5096261;28;20030;-47
2021/12/30 08:13:01;;;;;;;60.30;30.33;;;;;;;;;;5096130;28;20028;-48
2021/12/30 08:15:28;;;;;;;46.13;23.23;;;;;;;;;;5094733;28;20024;-49
2021/12/30 08:17:54;;;;;;;61.90;29.25;;;;;;;;;;5096069;28;20465;-48
2021/12/30 08:20:24;;;;;;;62.83;30.17;;;;;;;;;;5096069;28;20028;-45
2021/12/30 08:22:51;;;;;;;56.05;29.13;;;;;;;;;;5096117;28;20048;-47
2021/12/30 08:25:18;;;;;;;61.97;28.65;;;;;;;;;;5096424;28;20028;-42
2021/12/30 08:27:44;;;;;;;58.45;25.45;;;;;;;;;;5095493;28;20048;-42
2021/12/30 08:30:12;;;;;;;54.63;23.33;;;;;;;;;;5094505;28;20506;-47
2021/12/30 08:32:38;;;;;;;56.35;25.52;;;;;;;;;;5095744;28;20035;-44
2021/12/30 08:35:05;;;;;;;52.17;23.33;;;;;;;;;;5095861;28;20044;-41
2021/12/30 08:37:33;;;;;;;47.20;22.63;;;;;;;;;;5095873;28;20020;-41
2021/12/30 08:40:01;;;;;;;44.95;21.55;;;;;;;;;;5095729;28;20020;-45
2021/12/30 08:42:28;;;;;;;44.53;19.75;;;;;;;;;;5095612;28;20073;-46
2021/12/30 08:44:55;;;;;;;46.55;20.88;;;;;;;;;;5095269;28;20484;-49
2021/12/30 08:47:21;;;;;;;67.70;29.25;;;;;;;;;;5095493;28;20119;-49
2021/12/30 08:49:49;;;;;;;66.75;28.70;;;;;;;;;;5095539;28;20016;-40
2021/12/30 08:52:15;;;;;;;62.28;28.67;;;;;;;;;;5095310;28;20062;-46
2021/12/30 08:54:42;;;;;;;56.55;25.30;;;;;;;;;;5095366;28;20470;-41
2021/12/30 08:57:08;;;;;;;30.98;16.00;;;;;;;;;;5095522;28;20111;-41
2021/12/30 08:59:35;;;;;;;25.70;12.75;;;;;;;;;;5095307;28;20097;-44
2021/12/30 09:02:04;;;;;;;22.63;11.18;;;;;;;;;;5095041;28;20032;-48
2021/12/30 09:04:30;;;;;;;21.15;11.63;;;;;;;;;;5093776;28;20033;-42
2021/12/30 09:06:56;;;;;;;24.25;13.52;;;;;;;;;;5095275;28;20568;-45
2021/12/30 09:09:22;;;;;;;20.92;11.30;;;;;;;;;;5095043;28;20031;-46
2021/12/30 09:11:48;;;;;;;23.92;13.57;;;;;;;;;;5094982;28;20032;-41
2021/12/30 09:14:14;;;;;;;19.83;11.07;;;;;;;;;;5095005;28;20050;-45
2021/12/30 09:16:41;;;;;;;24.15;13.48;;;;;;;;;;5094968;28;20063;-42
2021/12/30 09:19:08;;;;;;;21.90;11.80;;;;;;;;;;5094957;28;20055;-45
2021/12/30 09:21:38;;;;;;;22.58;12.02;;;;;;;;;;5095084;28;20027;-42
2021/12/30 09:24:07;;;;;;;19.77;10.32;;;;;;;;;;5094624;28;20528;-48
2021/12/30 09:26:33;;;;;;;17.70;10.32;;;;;;;;;;5094450;28;20045;-44
2021/12/30 09:28:59;;;;;;;23.95;12.00;;;;;;;;;;5094839;28;20051;-49
2021/12/30 09:31:25;;;;;;;22.60;12.57;;;;;;;;;;5094616;28;20077;-47
2021/12/30 09:33:51;;;;;;;23.80;13.90;;;;;;;;;;5094656;28;20078;-48
2021/12/30 09:36:17;;;;;;;19.92;12.23;;;;;;;;;;5094846;28;20096;-40
2021/12/30 09:38:43;;;;;;;16.90;9.48;;;;;;;;;;5093078;28;20036;-42
2021/12/30 09:41:09;;;;;;;18.77;10.77;;;;;;;;;;5094888;28;20020;-41
2021/12/30 09:43:36;;;;;;;19.05;10.70;;;;;;;;;;5094375;28;20059;-47
2021/12/30 09:46:02;;;;;;;20.75;10.90;;;;;;;;;;5094450;28;20028;-42
2021/12/30 09:48:28;;;;;;;16.45;10.27;;;;;;;;;;5094314;28;20063;-48
2021/12/30 09:50:55;;;;;;;22.65;12.20;;;;;;;;;;5094385;28;20020;-49
2021/12/30 09:53:23;;;;;;;23.40;12.35;;;;;;;;;;5094388;28;20039;-48
2021/12/30 09:55:49;;;;;;;22.98;12.48;;;;;;;;;;5094346;28;20067;-48
2021/12/30 09:58:16;;;;;;;31.33;15.60;;;;;;;;;;5094027;28;20159;-47
2021/12/30 10:00:42;;;;;;;53.47;21.83;;;;;;;;;;5094368;28;20501;-46
2021/12/30 10:03:08;;;;;;;76.25;28.38;;;;;;;;;;5094002;28;20466;-46
2021/12/30 10:05:36;;;;;;;65.53;24.60;;;;;;;;;;5094122;28;20047;-42
2021/12/30 10:08:12;;;;;;;58.20;24.13;;;;;;;;;;5092540;28;20375;-41
2021/12/30 10:10:39;;;;;;;39.42;17.80;;;;;;;;;;5093805;28;20027;-41
2021/12/30 10:13:16;;;;;;;37.75;16.88;;;;;;;;;;5092495;28;20046;-44
2021/12/30 10:15:43;;;;;;;30.92;15.65;;;;;;;;;;5093932;28;20093;-50
2021/12/30 10:18:09;;;;;;;28.35;14.80;;;;;;;;;;5093798;28;20035;-46
2021/12/30 10:20:39;;;;;;;31.73;15.57;;;;;;;;;;5094056;28;20397;-49
2021/12/30 10:23:10;;;;;;;23.85;13.45;;;;;;;;;;5093746;28;20063;-43
2021/12/30 10:25:46;;;;;;;23.83;12.38;;;;;;;;;;5093639;28;20024;-51
2021/12/30 10:28:18;;;;;;;22.80;13.02;;;;;;;;;;5093690;28;20075;-47
2021/12/30 10:30:44;;;;;;;25.55;13.45;;;;;;;;;;5093591;28;20016;-42
2021/12/30 10:33:12;;;;;;;35.78;15.25;;;;;;;;;;5093810;28;20020;-43
2021/12/30 10:35:40;;;;;;;35.00;16.77;;;;;;;;;;5092175;28;20024;-41
2021/12/30 10:38:09;;;;;;;40.20;18.58;;;;;;;;;;5092692;28;20030;-43
2021/12/30 10:40:36;;;;;;;42.20;19.63;;;;;;;;;;5093526;28;20028;-43
2021/12/30 10:43:37;;;;;;;51.00;22.40;;;;;;;;;;5092103;28;20078;-43
2021/12/30 10:46:13;;;;;;;53.58;24.38;;;;;;;;;;5071095;28;20115;-42
2021/12/30 10:48:47;;;;;;;53.13;25.38;;;;;;;;;;5070944;28;20563;-47
2021/12/30 10:51:14;;;;;;;53.17;25.48;;;;;;;;;;5071194;28;20469;-43
2021/12/30 10:53:41;;;;;;;47.78;23.95;;;;;;;;;;5071077;28;20028;-43
2021/12/30 10:56:19;;;;;;;51.33;26.42;;;;;;;;;;5070932;28;20462;-48
2021/12/30 10:58:45;;;;;;;55.05;28.48;;;;;;;;;;5071081;28;20040;-44
2021/12/30 11:01:18;;;;;;;47.28;24.13;;;;;;;;;;5070934;28;20033;-47
2021/12/30 11:03:59;;;;;;;56.05;28.77;;;;;;;;;;5071380;28;20044;-41
2021/12/30 11:06:25;;;;;;;53.80;30.73;;;;;;;;;;5070937;28;20020;-42
2021/12/30 11:09:08;;;;;;;56.35;29.65;;;;;;;;;;5070825;28;20049;-47
2021/12/30 11:11:35;;;;;;;55.88;32.28;;;;;;;;;;5070957;28;20032;-49
2021/12/30 11:14:06;;;;;;;58.70;33.88;;;;;;;;;;5070799;28;20048;-43
2021/12/30 11:16:51;;;;;;;63.08;34.75;;;;;;;;;;5071288;28;20036;-42
2021/12/30 11:19:18;;;;;;;66.32;38.58;;;;;;;;;;5071079;28;20119;-44
2021/12/30 11:21:49;;;;;;;67.18;37.72;;;;;;;;;;5076398;28;20039;-47
2021/12/30 11:24:15;;;;;;;69.20;36.63;;;;;;;;;;5092975;28;20111;-47
2021/12/30 11:26:41;;;;;;;63.35;36.03;;;;;;;;;;5093248;28;20034;-48
2021/12/30 11:29:07;;;;;;;62.97;33.17;;;;;;;;;;5092957;28;20392;-44
2021/12/30 11:31:34;;;;;;;51.70;27.50;;;;;;;;;;5093000;28;20074;-43
2021/12/30 11:34:03;;;;;;;56.78;30.05;;;;;;;;;;5092928;28;20059;-47
2021/12/30 11:36:29;;;;;;;50.90;29.65;;;;;;;;;;5093112;28;20046;-48
2021/12/30 11:38:59;;;;;;;56.15;30.05;;;;;;;;;;5093415;28;20024;-41
2021/12/30 11:41:28;;;;;;;57.80;31.75;;;;;;;;;;5092884;28;20423;-42
2021/12/30 11:43:54;;;;;;;52.67;27.70;;;;;;;;;;5092876;28;20033;-42
2021/12/30 11:46:40;;;;;;;53.28;26.90;;;;;;;;;;5093096;28;20488;-46
2021/12/30 11:49:07;;;;;;;58.83;31.90;;;;;;;;;;5093470;28;20036;-48
2021/12/30 11:51:51;;;;;;;57.42;29.10;;;;;;;;;;5096603;28;20024;-49
2021/12/30 11:54:36;;;;;;;58.90;31.83;;;;;;;;;;5096557;28;20016;-49
2021/12/30 11:57:21;;;;;;;63.42;32.03;;;;;;;;;;5096311;28;20108;-42
2021/12/30 11:59:47;;;;;;;71.38;36.95;;;;;;;;;;5096461;28;20031;-42
2021/12/30 12:02:28;;;;;;;78.82;37.42;;;;;;;;;;5096245;28;20362;-49
2021/12/30 12:04:54;;;;;;;66.25;31.85;;;;;;;;;;5096556;28;20033;-45
2021/12/30 12:07:22;;;;;;;60.67;31.20;;;;;;;;;;5096284;28;20055;-50
2021/12/30 12:09:49;;;;;;;53.38;29.45;;;;;;;;;;5096251;28;20052;-49
2021/12/30 12:12:28;;;;;;;70.85;34.47;;;;;;;;;;5096184;28;20028;-41
2021/12/30 12:14:55;;;;;;;75.20;37.80;;;;;;;;;;5096018;28;20028;-51
2021/12/30 12:17:38;;;;;;;77.18;38.65;;;;;;;;;;5096375;28;20055;-46
2021/12/30 12:20:18;;;;;;;81.20;38.00;;;;;;;;;;5096125;28;20055;-44
2021/12/30 12:22:45;;;;;;;96.78;39.70;;;;;;;;;;5096059;28;20103;-48
2021/12/30 12:25:16;;;;;;;88.47;42.22;;;;;;;;;;5095844;28;20016;-46
2021/12/30 12:27:45;;;;;;;91.03;39.42;;;;;;;;;;5095713;28;20131;-47
2021/12/30 12:30:40;;;;;;;88.45;38.80;;;;;;;;;;5095933;28;20032;-47
2021/12/30 12:33:25;;;;;;;100.32;42.67;;;;;;;;;;5094677;28;20409;-46
2021/12/30 12:35:51;;;;;;;99.65;41.00;;;;;;;;;;5095520;28;20024;-48
2021/12/30 12:38:37;;;;;;;87.65;37.42;;;;;;;;;;5095671;28;20526;-47
2021/12/30 12:41:15;;;;;;;86.78;36.90;;;;;;;;;;5095746;28;20016;-47
2021/12/30 12:43:42;;;;;;;78.30;33.40;;;;;;;;;;5095790;28;20032;-43
2021/12/30 12:46:08;;;;;;;74.40;31.35;;;;;;;;;;5095504;28;20016;-47
2021/12/30 12:48:35;;;;;;;71.32;34.33;;;;;;;;;;5095348;28;20047;-40
2021/12/30 12:51:07;;;;;;;72.30;32.85;;;;;;;;;;5095449;28;20028;-44
2021/12/30 12:53:33;;;;;;;82.18;35.20;;;;;;;;;;5095507;28;20390;-50
2021/12/30 12:56:00;;;;;;;88.78;39.00;;;;;;;;;;5095468;28;20078;-45
2021/12/30 12:58:32;;;;;;;67.07;28.73;;;;;;;;;;5095422;28;20032;-48
2021/12/30 13:01:02;;;;;;;88.93;41.00;;;;;;;;;;5094354;28;20477;-47
2021/12/30 13:03:29;;;;;;;66.80;31.83;;;;;;;;;;5095151;28;20125;-48
2021/12/30 13:06:02;;;;;;;54.20;27.15;;;;;;;;;;5095102;28;20362;-45
2021/12/30 13:08:32;;;;;;;60.45;29.13;;;;;;;;;;5095109;28;20040;-47
2021/12/30 13:10:59;;;;;;;66.15;30.95;;;;;;;;;;5095113;28;20023;-50
2021/12/30 13:13:33;;;;;;;52.65;25.08;;;;;;;;;;5095003;28;20059;-47
2021/12/30 13:16:00;;;;;;;71.05;35.72;;;;;;;;;;5094973;28;20032;-46
2021/12/30 13:18:26;;;;;;;79.78;36.30;;;;;;;;;;5094857;28;20026;-42
2021/12/30 13:20:52;;;;;;;77.50;36.80;;;;;;;;;;5094938;28;20392;-47
2021/12/30 13:23:29;;;;;;;77.65;41.67;;;;;;;;;;5094715;28;20020;-44
2021/12/30 13:26:03;;;;;;;78.35;36.80;;;;;;;;;;5094541;28;20103;-46
2021/12/30 13:28:30;;;;;;;102.55;50.00;;;;;;;;;;5094265;28;20054;-44
2021/12/30 13:31:10;;;;;;;99.25;51.13;;;;;;;;;;5094600;28;20469;-47
2021/12/30 13:33:36;;;;;;;131.52;65.50;;;;;;;;;;5094637;28;20195;-44
2021/12/30 13:36:15;;;;;;;132.15;63.33;;;;;;;;;;5094786;28;20016;-46
2021/12/30 13:38:46;;;;;;;74.95;36.15;;;;;;;;;;5094446;28;20024;-46
2021/12/30 13:41:13;;;;;;;62.63;31.48;;;;;;;;;;5094460;28;20405;-50
2021/12/30 13:43:40;;;;;;;63.80;30.17;;;;;;;;;;5094478;28;20423;-50
2021/12/30 13:46:06;;;;;;;58.50;27.27;;;;;;;;;;5094434;28;20020;-48
2021/12/30 13:48:37;;;;;;;49.40;26.25;;;;;;;;;;5094209;28;20035;-44
2021/12/30 13:51:03;;;;;;;;;;;;;;;;;;5094698;28;20039;-48
2021/12/30 13:53:31;;;;;;;61.42;30.52;;;;;;;;;;5094350;28;19911;-46
2021/12/30 13:56:08;;;;;;;74.45;34.15;;;;;;;;;;5094100;28;20034;-49
2021/12/30 13:58:35;;;;;;;57.40;27.55;;;;;;;;;;5094451;28;20024;-47
2021/12/30 14:01:04;;;;;;;67.25;31.23;;;;;;;;;;5094339;28;20027;-47
2021/12/30 14:03:32;;;;;;;57.20;29.20;;;;;;;;;;5094368;28;20055;-44
2021/12/30 14:06:11;;;;;;;46.00;24.95;;;;;;;;;;5094141;28;20020;-47
2021/12/30 14:08:39;;;;;;;60.35;30.23;;;;;;;;;;5093842;28;20470;-47
2021/12/30 14:11:08;;;;;;;58.80;30.13;;;;;;;;;;5093852;28;20043;-44
2021/12/30 14:13:41;;;;;;;51.83;27.00;;;;;;;;;;5093054;28;20034;-45
2021/12/30 14:16:13;;;;;;;56.90;29.58;;;;;;;;;;5093958;28;20024;-49
2021/12/30 14:18:40;;;;;;;57.17;27.05;;;;;;;;;;5093877;28;20024;-48
2021/12/30 14:21:06;;;;;;;66.72;35.20;;;;;;;;;;5093830;28;20028;-48